Time,TemperatureF,DewpointF,PressureIn,WindDirection,WindDirectionDegrees,WindSpeedMPH,WindSpeedGustMPH,Humidity,HourlyPrecipIn,Conditions,Clouds,dailyrainin,SolarRadiationWatts/m^2,SoftwareType,DateUTC
2013-08-03 00:02:00,76.0,75.0,-100.00,West,278,5.0,9.0,98,0.00,,,0.00,0.000000,,2013-08-03 04:02:00,
2013-08-03 00:43:00,75.0,74.0,-100.00,WNW,291,4.0,7.0,97,0.00,,,0.00,0.000000,,2013-08-03 04:43:00,
2013-08-03 00:53:00,75.0,74.0,-100.00,WNW,291,4.0,7.0,97,0.00,,,0.00,0.000000,,2013-08-03 04:53:00,
2013-08-03 01:02:00,75.0,74.0,-100.00,WNW,291,4.0,7.0,97,0.00,,,0.00,0.000000,,2013-08-03 05:02:00,
2013-08-03 01:32:00,75.0,74.0,-100.00,WNW,287,4.0,8.0,98,0.00,,,0.00,0.000000,,2013-08-03 05:32:00,
2013-08-03 01:42:00,75.0,74.0,-100.00,WNW,287,4.0,8.0,98,0.00,,,0.00,0.000000,,2013-08-03 05:42:00,
2013-08-03 01:52:00,75.0,74.0,-100.00,WNW,287,4.0,8.0,98,0.00,,,0.00,0.000000,,2013-08-03 05:52:00,
2013-08-03 02:02:00,75.0,74.0,-100.00,WNW,287,4.0,8.0,98,0.00,,,0.00,0.000000,,2013-08-03 06:02:00,
2013-08-03 02:33:00,74.0,73.0,-100.00,WNW,303,3.0,6.0,98,0.00,,,0.00,0.000000,,2013-08-03 06:33:00,
2013-08-03 02:42:00,74.0,73.0,-100.00,WNW,303,3.0,6.0,98,0.00,,,0.00,0.000000,,2013-08-03 06:42:00,
2013-08-03 02:52:00,74.0,73.0,-100.00,WNW,303,3.0,6.0,98,0.00,,,0.00,0.000000,,2013-08-03 06:52:00,
2013-08-03 03:02:00,74.0,73.0,-100.00,WNW,303,3.0,6.0,98,0.00,,,0.00,0.000000,,2013-08-03 07:02:00,
2013-08-03 03:32:00,74.0,73.0,-100.00,NW,312,1.0,6.0,98,0.00,,,0.00,0.000000,,2013-08-03 07:32:00,
2013-08-03 03:43:00,74.0,73.0,-100.00,NW,312,1.0,6.0,98,0.00,,,0.00,0.000000,,2013-08-03 07:43:00,
2013-08-03 03:53:00,74.0,73.0,-100.00,NW,312,1.0,6.0,98,0.00,,,0.00,0.000000,,2013-08-03 07:53:00,
2013-08-03 04:02:00,74.0,73.0,-100.00,NW,312,1.0,6.0,98,0.00,,,0.00,0.000000,,2013-08-03 08:02:00,
2013-08-03 04:32:00,73.0,72.0,-100.00,SW,236,3.0,5.0,98,0.00,,,-99.99,0.000000,,2013-08-03 08:32:00,
2013-08-03 04:43:00,73.0,72.0,-100.00,SW,236,3.0,5.0,98,0.00,,,-99.99,0.000000,,2013-08-03 08:43:00,
2013-08-03 04:52:00,73.0,72.0,-100.00,SW,236,3.0,5.0,98,0.00,,,-99.99,0.000000,,2013-08-03 08:52:00,
2013-08-03 05:02:00,73.0,72.0,-100.00,SW,236,3.0,5.0,98,0.00,,,-99.99,0.000000,,2013-08-03 09:02:00,
2013-08-03 05:32:00,72.0,71.0,-100.00,WSW,245,1.0,4.0,98,0.00,,,0.00,0.000000,,2013-08-03 09:32:00,
2013-08-03 05:43:00,72.0,71.0,-100.00,WSW,245,1.0,4.0,98,0.00,,,0.00,0.000000,,2013-08-03 09:43:00,
2013-08-03 05:53:00,72.0,71.0,-100.00,WSW,245,1.0,4.0,98,0.00,,,0.00,0.000000,,2013-08-03 09:53:00,
2013-08-03 06:02:00,72.0,71.0,-100.00,WSW,245,1.0,4.0,98,0.00,,,0.00,0.000000,,2013-08-03 10:02:00,
2013-08-03 06:42:00,72.0,72.0,-100.00,WNW,298,0.0,2.0,99,0.00,,,0.00,0.000000,,2013-08-03 10:42:00,
2013-08-03 06:53:00,72.0,72.0,-100.00,WNW,298,0.0,2.0,99,0.00,,,0.00,0.000000,,2013-08-03 10:53:00,
2013-08-03 07:02:00,72.0,72.0,-100.00,WNW,298,0.0,2.0,99,0.00,,,0.00,0.000000,,2013-08-03 11:02:00,
2013-08-03 07:32:00,72.0,72.0,-100.00,South,176,0.0,0.0,99,0.00,,,0.00,4.000000,,2013-08-03 11:32:00,
2013-08-03 07:43:00,72.0,72.0,-100.00,South,176,0.0,0.0,99,0.00,,,0.00,4.000000,,2013-08-03 11:43:00,
2013-08-03 07:53:00,72.0,72.0,-100.00,South,176,0.0,0.0,99,0.00,,,0.00,4.000000,,2013-08-03 11:53:00,
2013-08-03 08:03:00,72.0,72.0,-100.00,South,176,0.0,0.0,99,0.00,,,0.00,4.000000,,2013-08-03 12:03:00,
2013-08-03 08:43:00,74.0,74.0,-100.00,SSW,211,0.0,0.0,99,0.00,,,0.00,55.000000,,2013-08-03 12:43:00,
2013-08-03 08:52:00,74.0,74.0,-100.00,SSW,211,0.0,0.0,99,0.00,,,0.00,55.000000,,2013-08-03 12:52:00,
2013-08-03 09:02:00,74.0,74.0,-100.00,SSW,211,0.0,0.0,99,0.00,,,0.00,55.000000,,2013-08-03 13:02:00,
2013-08-03 09:43:00,77.0,76.0,-100.00,WNW,295,3.0,5.0,97,0.00,,,0.00,95.000000,,2013-08-03 13:43:00,
2013-08-03 09:52:00,77.0,76.0,-100.00,WNW,295,3.0,5.0,97,0.00,,,0.00,95.000000,,2013-08-03 13:52:00,
2013-08-03 10:02:00,77.0,76.0,-100.00,WNW,295,3.0,5.0,97,0.00,,,0.00,95.000000,,2013-08-03 14:02:00,
2013-08-03 10:33:00,83.0,79.0,-100.00,NW,326,3.0,9.0,88,0.00,,,0.00,273.000000,,2013-08-03 14:33:00,
2013-08-03 10:42:00,83.0,79.0,-100.00,NW,326,3.0,9.0,88,0.00,,,0.00,273.000000,,2013-08-03 14:42:00,
2013-08-03 10:52:00,83.0,79.0,-100.00,NW,326,3.0,9.0,88,0.00,,,0.00,273.000000,,2013-08-03 14:52:00,
2013-08-03 11:02:00,83.0,79.0,-100.00,NW,326,3.0,9.0,88,0.00,,,0.00,273.000000,,2013-08-03 15:02:00,
2013-08-03 11:32:00,87.0,76.0,-100.00,WNW,300,3.0,7.0,71,0.00,,,0.00,674.000000,,2013-08-03 15:32:00,
2013-08-03 11:43:00,87.0,76.0,-100.00,WNW,300,3.0,7.0,71,0.00,,,0.00,674.000000,,2013-08-03 15:43:00,
2013-08-03 11:53:00,87.0,76.0,-100.00,WNW,300,3.0,7.0,71,0.00,,,0.00,674.000000,,2013-08-03 15:53:00,
2013-08-03 12:02:00,87.0,76.0,-100.00,WNW,300,3.0,7.0,71,0.00,,,0.00,674.000000,,2013-08-03 16:02:00,
2013-08-03 12:33:00,89.0,77.0,-100.00,North,4,3.0,7.0,67,0.00,,,0.00,675.000000,,2013-08-03 16:33:00,
2013-08-03 12:43:00,89.0,77.0,-100.00,North,4,3.0,7.0,67,0.00,,,0.00,675.000000,,2013-08-03 16:43:00,
2013-08-03 12:53:00,89.0,77.0,-100.00,North,4,3.0,7.0,67,0.00,,,0.00,675.000000,,2013-08-03 16:53:00,
2013-08-03 13:03:00,89.0,77.0,-100.00,North,4,3.0,7.0,67,0.00,,,0.00,675.000000,,2013-08-03 17:03:00,
2013-08-03 13:32:00,92.0,80.0,-100.00,North,10,2.0,6.0,68,0.00,,,0.00,687.000000,,2013-08-03 17:32:00,
2013-08-03 13:43:00,92.0,80.0,-100.00,North,10,2.0,6.0,68,0.00,,,0.00,687.000000,,2013-08-03 17:43:00,
2013-08-03 13:52:00,92.0,80.0,-100.00,North,10,2.0,6.0,68,0.00,,,0.00,687.000000,,2013-08-03 17:52:00,
2013-08-03 14:02:00,92.0,80.0,-100.00,North,10,2.0,6.0,68,0.00,,,0.00,687.000000,,2013-08-03 18:02:00,
2013-08-03 14:32:00,92.0,76.0,-100.00,ENE,66,3.0,8.0,60,0.00,,,0.00,733.000000,,2013-08-03 18:32:00,
2013-08-03 14:43:00,92.0,76.0,-100.00,ENE,66,3.0,8.0,60,0.00,,,0.00,733.000000,,2013-08-03 18:43:00,
2013-08-03 14:53:00,92.0,76.0,-100.00,ENE,66,3.0,8.0,60,0.00,,,0.00,733.000000,,2013-08-03 18:53:00,
2013-08-03 15:03:00,92.0,76.0,-100.00,ENE,66,3.0,8.0,60,0.00,,,0.00,733.000000,,2013-08-03 19:03:00,
2013-08-03 16:32:00,90.0,78.0,-100.00,NNW,328,3.0,8.0,69,0.00,,,0.00,502.000000,,2013-08-03 20:32:00,
2013-08-03 16:42:00,90.0,78.0,-100.00,NNW,328,3.0,8.0,69,0.00,,,0.00,502.000000,,2013-08-03 20:42:00,
2013-08-03 16:52:00,90.0,78.0,-100.00,NNW,328,3.0,8.0,69,0.00,,,0.00,502.000000,,2013-08-03 20:52:00,
2013-08-03 17:02:00,90.0,78.0,-100.00,NNW,328,3.0,8.0,69,0.00,,,0.00,502.000000,,2013-08-03 21:02:00,
2013-08-03 17:32:00,88.0,77.0,-100.00,NNW,348,3.0,7.0,71,0.00,,,-99.99,438.000000,,2013-08-03 21:32:00,
2013-08-03 17:42:00,88.0,77.0,-100.00,NNW,348,3.0,7.0,71,0.00,,,-99.99,438.000000,,2013-08-03 21:42:00,
2013-08-03 17:52:00,88.0,77.0,-100.00,NNW,348,3.0,7.0,71,0.00,,,-99.99,438.000000,,2013-08-03 21:52:00,
2013-08-03 18:02:00,88.0,77.0,-100.00,NNW,348,3.0,7.0,71,0.00,,,-99.99,438.000000,,2013-08-03 22:02:00,
2013-08-03 18:33:00,85.0,78.0,-100.00,NE,54,3.0,7.0,81,0.00,,,0.00,186.000000,,2013-08-03 22:33:00,
2013-08-03 18:43:00,85.0,78.0,-100.00,NE,54,3.0,7.0,81,0.00,,,0.00,186.000000,,2013-08-03 22:43:00,
2013-08-03 18:52:00,85.0,78.0,-100.00,NE,54,3.0,7.0,81,0.00,,,0.00,186.000000,,2013-08-03 22:52:00,
2013-08-03 19:02:00,85.0,78.0,-100.00,NE,54,3.0,7.0,81,0.00,,,0.00,186.000000,,2013-08-03 23:02:00,
2013-08-03 19:32:00,82.0,77.0,-100.00,NE,38,3.0,6.0,86,0.00,,,0.00,97.000000,,2013-08-03 23:32:00,
2013-08-03 19:42:00,82.0,77.0,-100.00,NE,38,3.0,6.0,86,0.00,,,0.00,97.000000,,2013-08-03 23:42:00,
2013-08-03 19:52:00,82.0,77.0,-100.00,NE,38,3.0,6.0,86,0.00,,,0.00,97.000000,,2013-08-03 23:52:00,
2013-08-03 20:02:00,82.0,77.0,-100.00,NE,38,3.0,6.0,86,0.00,,,0.00,97.000000,,2013-08-04 00:02:00,
2013-08-03 20:32:00,80.0,77.0,-100.00,NNE,26,3.0,5.0,90,0.00,,,0.00,38.000000,,2013-08-04 00:32:00,
2013-08-03 20:42:00,80.0,77.0,-100.00,NNE,26,3.0,5.0,90,0.00,,,0.00,38.000000,,2013-08-04 00:42:00,
2013-08-03 20:53:00,80.0,77.0,-100.00,NNE,26,3.0,5.0,90,0.00,,,0.00,38.000000,,2013-08-04 00:53:00,
2013-08-03 21:02:00,80.0,77.0,-100.00,NNE,26,3.0,5.0,90,0.00,,,0.00,38.000000,,2013-08-04 01:02:00,
2013-08-03 21:32:00,78.0,77.0,-100.00,North,8,3.0,6.0,96,0.00,,,0.00,1.000000,,2013-08-04 01:32:00,
2013-08-03 21:42:00,78.0,77.0,-100.00,North,8,3.0,6.0,96,0.00,,,0.00,1.000000,,2013-08-04 01:42:00,
2013-08-03 21:53:00,78.0,77.0,-100.00,North,8,3.0,6.0,96,0.00,,,0.00,1.000000,,2013-08-04 01:53:00,
2013-08-03 22:03:00,78.0,77.0,-100.00,North,8,3.0,6.0,96,0.00,,,0.00,1.000000,,2013-08-04 02:03:00,
2013-08-03 22:32:00,75.0,74.0,-100.00,NNW,329,3.0,5.0,96,0.00,,,0.00,0.000000,,2013-08-04 02:32:00,
2013-08-03 22:42:00,75.0,74.0,-100.00,NNW,329,3.0,5.0,96,0.00,,,0.00,0.000000,,2013-08-04 02:42:00,
2013-08-03 22:52:00,75.0,74.0,-100.00,NNW,329,3.0,5.0,96,0.00,,,0.00,0.000000,,2013-08-04 02:52:00,
2013-08-03 23:02:00,75.0,74.0,-100.00,NNW,329,3.0,5.0,96,0.00,,,0.00,0.000000,,2013-08-04 03:02:00,
2013-08-03 23:32:00,74.0,73.0,-100.00,NW,322,4.0,6.0,97,0.00,,,0.00,0.000000,,2013-08-04 03:32:00,
2013-08-03 23:42:00,74.0,73.0,-100.00,NW,322,4.0,6.0,97,0.00,,,0.00,0.000000,,2013-08-04 03:42:00,
2013-08-03 23:52:00,74.0,73.0,-100.00,NW,322,4.0,6.0,97,0.00,,,0.00,0.000000,,2013-08-04 03:52:00,